This is the latest recevied weather packets stored in our database for station/object AI5KP-13. If no packets are shown the sender has not sent any weather packets the latest 10 day(s).
| Time | Temp. | Humidity | Pressure | Rain* | Wind** | Luminosity | Snow |
|---|---|---|---|---|---|---|---|
| 1777729112 | 13.33° C | 72% | 1020.1 hPa | 0 mm | - | 244 W/m² | - |
| 1777728809 | 12.78° C | 76% | 1020.2 hPa | 0 mm | - | 226 W/m² | - |
| 1777728506 | 11.11° C | 81% | 1020.2 hPa | 0 mm | - | 209 W/m² | - |
| 1777728203 | 11.11° C | 81% | 1020.2 hPa | 0 mm | - | 80 W/m² | - |
| 1777727900 | 10.56° C | 83% | 1020 hPa | 0 mm | - | 190 W/m² | - |
| 1777727597 | 10.56° C | 81% | 1020.1 hPa | 0 mm | - | 87 W/m² | - |
| 1777727294 | 10° C | 85% | 1020 hPa | 0 mm | - | 145 W/m² | - |
| 1777726992 | 9.44° C | 86% | 1020 hPa | 0 mm | - | 132 W/m² | - |
| 1777726688 | 8.33° C | 90% | 1020 hPa | 0 mm | - | 91 W/m² | - |
| 1777726386 | 8.33° C | 90% | 1020 hPa | 0 mm | - | 58 W/m² | - |
| 1777726082 | 8.33° C | 90% | 1020 hPa | 0 mm | - | 61 W/m² | - |
| 1777725779 | 8.33° C | 88% | 1020.1 hPa | 0 mm | - | 80 W/m² | - |
| 1777725477 | 7.78° C | 91% | 1020.1 hPa | 0 mm | - | 92 W/m² | - |
| 1777725174 | 7.78° C | 90% | 1019.9 hPa | 0 mm | - | 55 W/m² | - |
| 1777724871 | 7.78° C | 90% | 1020.1 hPa | 0 mm | - | 60 W/m² | - |
| 1777724567 | 7.22° C | 90% | 1019.9 hPa | 0 mm | - | 52 W/m² | - |
| 1777724265 | 7.22° C | 90% | 1019.8 hPa | 0 mm | - | 43 W/m² | - |
| 1777723963 | 7.78° C | 89% | 1019.8 hPa | 0 mm | - | 39 W/m² | - |
| 1777723659 | 7.22° C | 91% | 1019.6 hPa | 0 mm | - | 31 W/m² | - |
| 1777723356 | 6.67° C | 93% | 1019.6 hPa | 0 mm | - | 34 W/m² | - |
| 1777723054 | 6.67° C | 93% | 1019.5 hPa | 0 mm | - | 28 W/m² | - |
| 1777722750 | 6.67° C | 93% | 1019.6 hPa | 0 mm | - | 21 W/m² | - |
| 1777722446 | 6.11° C | 93% | 1019.4 hPa | 0 mm | - | 14 W/m² | - |
| 1777722144 | 6.11° C | 93% | 1019.6 hPa | 0 mm | - | 9 W/m² | - |
| 1777721841 | 6.11° C | 93% | 1019.3 hPa | 0 mm | - | 7 W/m² | - |
* Rain latest hour (hover to see other rain measurements)
** Current wind speed in m/s (hover to see current wind gust speed)